Time;durP1;ratioP1;P1;durP2;ratioP2;P2;SDS_P1;SDS_P2;PMS_P1;PMS_P2;Temp;Humidity;BMP_temperature;BMP_pressure;BME280_temperature;BME280_humidity;BME280_pressure;Samples;Min_cycle;Max_cycle;Signal;HPM_P1;HPM_P2
2022/06/16 00:00:33;;;;;;;10.63;4.90;;;;;;;17.35;89.59;101516.66;5077973;28;20038;-76
2022/06/16 00:02:59;;;;;;;18.45;5.63;;;;;;;17.32;88.54;101512.31;5086132;28;20034;-77
2022/06/16 00:05:28;;;;;;;6.15;4.55;;;;;;;17.37;89.02;101500.78;5060775;28;20171;-77
2022/06/16 00:07:54;;;;;;;12.18;5.45;;;;;;;17.27;89.17;101503.56;5075902;28;20036;-77
2022/06/16 00:10:20;;;;;;;7.75;5.25;;;;;;;17.08;90.77;101508.09;5061627;28;20031;-77
2022/06/16 00:12:46;;;;;;;13.27;4.30;;;;;;;17.26;89.61;101496.28;5070351;28;20078;-76
2022/06/16 00:15:15;;;;;;;16.63;5.68;;;;;;;17.18;90.03;101502.56;5091749;28;20132;-76
2022/06/16 00:17:41;;;;;;;11.40;5.07;;;;;;;17.14;91.33;101505.81;5083736;28;20491;-76
2022/06/16 00:20:08;;;;;;;8.65;4.70;;;;;;;17.17;91.20;101499.97;5071344;28;20063;-77
2022/06/16 00:22:35;;;;;;;8.73;5.35;;;;;;;17.14;91.33;101503.03;5083413;28;20024;-76
2022/06/16 00:25:01;;;;;;;13.88;5.20;;;;;;;17.16;90.98;101500.97;5087785;28;20098;-76
2022/06/16 00:27:27;;;;;;;14.50;5.10;;;;;;;17.12;91.61;101493.97;5082077;28;20039;-77
2022/06/16 00:29:52;;;;;;;12.07;5.28;;;;;;;17.08;92.58;101501.72;5083033;28;20044;-77
2022/06/16 00:32:18;;;;;;;10.32;5.43;;;;;;;17.07;92.25;101500.84;5077744;28;20085;-77
2022/06/16 00:34:44;;;;;;;14.18;5.85;;;;;;;17.02;93.42;101499.53;5089812;28;20028;-76
2022/06/16 00:37:09;;;;;;;10.35;5.13;;;;;;;16.99;92.73;101495.19;5075041;28;20029;-76
2022/06/16 00:39:35;;;;;;;15.27;6.50;;;;;;;16.82;92.95;101499.53;5063458;28;20060;-77
2022/06/16 00:42:14;;;;;;;13.05;5.20;;;;;;;16.88;93.12;101503.63;5079615;28;20032;-77
2022/06/16 00:44:45;;;;;;;15.27;5.32;;;;;;;16.77;93.56;101500.97;5076998;28;20032;-77
2022/06/16 00:47:12;;;;;;;12.23;6.03;;;;;;;16.76;93.13;101502.88;5084715;28;20040;-77
2022/06/16 00:49:44;;;;;;;15.27;6.00;;;;;;;16.71;93.69;101497.78;5064360;28;20396;-77
2022/06/16 00:52:15;;;;;;;10.95;5.45;;;;;;;16.68;95.22;101508.28;5085473;28;20036;-77
2022/06/16 00:54:46;;;;;;;12.30;6.23;;;;;;;16.66;93.53;101502.88;5084415;28;20032;-77
2022/06/16 00:57:18;;;;;;;16.02;6.70;;;;;;;16.61;94.42;101505.22;5092260;28;20040;-77
2022/06/16 00:59:44;;;;;;;11.35;5.55;;;;;;;16.51;93.23;101510.75;5074845;28;20076;-77
2022/06/16 01:02:10;;;;;;;15.73;6.28;;;;;;;16.54;94.39;101516.00;5081879;28;20064;-77
2022/06/16 01:04:51;;;;;;;13.20;6.45;;;;;;;16.50;96.08;101508.13;5059737;28;20040;-77
2022/06/16 01:07:24;;;;;;;18.23;6.53;;;;;;;16.54;96.23;101512.31;5075946;28;20344;-77
2022/06/16 01:09:51;;;;;;;13.65;6.65;;;;;;;16.54;94.00;101517.84;5050833;28;20038;-77
2022/06/16 01:15:30;;;;;;;14.60;6.70;;;;;;;16.44;96.29;101531.66;5078763;28;20036;-79
2022/06/16 01:18:02;;;;;;;15.20;6.80;;;;;;;16.37;95.75;101533.28;5078663;28;20070;-77
2022/06/16 01:21:17;;;;;;;13.27;5.93;;;;;;;16.32;97.18;101532.81;5084028;28;20028;-77
2022/06/16 01:23:58;;;;;;;18.85;6.65;;;;;;;16.29;96.98;101538.63;5075781;28;20056;-76
2022/06/16 01:26:32;;;;;;;16.95;6.72;;;;;;;16.31;96.77;101542.13;5088630;28;20032;-76
2022/06/16 01:29:12;;;;;;;11.98;6.07;;;;;;;16.20;98.14;101543.13;5089474;28;20048;-76
2022/06/16 01:31:45;;;;;;;14.77;5.90;;;;;;;16.14;98.02;101546.44;5082724;28;20070;-76
2022/06/16 01:34:45;;;;;;;14.18;6.05;;;;;;;15.94;99.48;101554.66;5073846;28;20388;-77
2022/06/16 01:37:47;;;;;;;15.48;7.10;;;;;;;15.95;99.49;101552.78;5071911;28;20032;-76
2022/06/16 01:40:22;;;;;;;12.85;6.82;;;;;;;15.77;100.00;101545.16;5084205;28;20499;-77
2022/06/16 01:42:56;;;;;;;19.88;7.72;;;;;;;15.73;100.00;101543.66;5072828;28;20025;-77
2022/06/16 01:45:34;;;;;;;15.77;7.60;;;;;;;15.65;100.00;101554.50;5073459;28;20032;-77
2022/06/16 01:48:00;;;;;;;14.75;8.38;;;;;;;15.68;100.00;101553.38;5088021;28;20036;-77
2022/06/16 01:50:33;;;;;;;11.15;7.10;;;;;;;15.67;100.00;101552.47;5065720;28;20154;-77
2022/06/16 01:53:13;;;;;;;19.73;7.10;;;;;;;15.70;100.00;101554.09;5074387;28;20048;-77
2022/06/16 01:55:50;;;;;;;17.58;7.75;;;;;;;15.56;100.00;101563.59;5083686;28;20437;-76
2022/06/16 01:58:24;;;;;;;11.63;7.25;;;;;;;15.56;100.00;101558.97;5081502;28;20040;-77
2022/06/16 02:00:53;;;;;;;19.15;8.00;;;;;;;15.44;100.00;101554.53;5067620;28;20367;-77
2022/06/16 02:03:29;;;;;;;15.10;7.38;;;;;;;15.49;100.00;101552.22;5087087;28;20479;-77
2022/06/16 02:06:05;;;;;;;17.05;7.47;;;;;;;15.38;100.00;101555.06;5082728;28;20031;-77
2022/06/16 02:08:38;;;;;;;15.68;6.72;;;;;;;15.33;100.00;101555.50;5086674;28;20468;-76
2022/06/16 02:11:08;;;;;;;;;;;;;;;15.28;100.00;101556.91;5087513;28;20028;-76
2022/06/16 02:13:42;;;;;;;14.80;6.85;;;;;;;15.17;100.00;101550.44;5079163;28;19919;-77
2022/06/16 02:16:18;;;;;;;20.30;6.85;;;;;;;15.19;100.00;101553.06;5090061;28;20035;-77
2022/06/16 02:18:45;;;;;;;9.82;6.43;;;;;;;15.22;100.00;101574.88;5087631;28;20055;-77
2022/06/16 02:21:32;;;;;;;14.65;7.45;;;;;;;15.18;100.00;101566.00;5083402;28;20040;-77
2022/06/16 02:23:57;;;;;;;17.70;7.85;;;;;;;15.10;100.00;101568.53;5071815;28;20454;-77
2022/06/16 02:26:25;;;;;;;14.82;7.40;;;;;;;14.97;100.00;101563.22;5089266;28;20111;-78
2022/06/16 02:28:56;;;;;;;22.23;7.40;;;;;;;14.98;100.00;101561.31;5089628;28;20123;-78
2022/06/16 02:31:46;;;;;;;20.60;8.05;;;;;;;14.87;100.00;101554.88;5074248;28;20048;-79
2022/06/16 02:34:14;;;;;;;21.80;8.38;;;;;;;14.89;100.00;101554.75;5072440;28;20039;-78
2022/06/16 02:36:56;;;;;;;17.02;7.65;;;;;;;14.84;100.00;101560.63;5086014;28;20070;-77
2022/06/16 02:39:28;;;;;;;21.52;9.32;;;;;;;14.74;100.00;101567.06;5083738;28;20411;-77
2022/06/16 02:42:05;;;;;;;18.17;8.57;;;;;;;14.75;100.00;101577.97;5070869;28;20131;-77
2022/06/16 02:44:56;;;;;;;18.77;9.35;;;;;;;14.77;100.00;101578.69;5059133;28;20028;-76
2022/06/16 02:47:58;;;;;;;17.92;8.45;;;;;;;14.65;100.00;101585.28;5082821;28;23054;-78
2022/06/16 02:51:05;;;;;;;22.35;8.93;;;;;;;14.66;100.00;101582.38;5072760;28;20036;-76
2022/06/16 02:53:45;;;;;;;22.33;8.38;;;;;;;14.69;100.00;101595.91;5076418;28;20395;-77
2022/06/16 02:56:19;;;;;;;19.08;9.40;;;;;;;14.69;100.00;101595.91;5090877;28;20032;-77
2022/06/16 02:58:47;;;;;;;14.88;9.35;;;;;;;14.67;100.00;101597.91;5065941;28;20078;-77
2022/06/16 03:01:12;;;;;;;19.38;9.07;;;;;;;14.61;100.00;101597.53;5077058;28;20039;-77
2022/06/16 03:03:38;;;;;;;18.30;9.70;;;;;;;14.60;100.00;101607.69;5063435;28;20036;-77
2022/06/16 03:06:04;;;;;;;29.02;10.57;;;;;;;14.53;100.00;101612.81;5059494;28;20048;-76
2022/06/16 03:08:35;;;;;;;25.88;9.35;;;;;;;14.37;100.00;101617.88;5091605;28;20027;-76
2022/06/16 03:11:01;;;;;;;25.80;9.35;;;;;;;14.47;100.00;101621.59;5082694;28;20032;-77
2022/06/16 03:13:30;;;;;;;16.38;9.23;;;;;;;14.43;100.00;101620.13;5071931;28;20041;-76
2022/06/16 03:15:57;;;;;;;20.23;9.77;;;;;;;14.45;100.00;101620.84;5083653;28;20043;-77
2022/06/16 03:18:24;;;;;;;20.33;11.02;;;;;;;14.41;100.00;101629.50;5082783;28;20040;-77
2022/06/16 03:20:50;;;;;;;20.15;9.85;;;;;;;14.29;100.00;101626.75;5083272;28;20491;-76
2022/06/16 03:23:17;;;;;;;19.20;10.05;;;;;;;14.24;100.00;101623.50;5092178;28;20081;-77
2022/06/16 03:25:43;;;;;;;29.45;11.50;;;;;;;14.26;100.00;101628.91;5069689;28;20033;-77
2022/06/16 03:28:09;;;;;;;25.90;11.07;;;;;;;14.04;100.00;101629.78;5081174;28;20035;-77
2022/06/16 03:30:38;;;;;;;20.20;10.30;;;;;;;14.18;100.00;101629.53;5079501;28;20041;-77
2022/06/16 03:33:05;;;;;;;25.83;10.93;;;;;;;14.19;100.00;101625.78;5063292;28;20036;-77
2022/06/16 03:35:31;;;;;;;20.23;10.23;;;;;;;14.27;100.00;101620.50;5080890;28;20122;-77
2022/06/16 03:37:59;;;;;;;25.52;10.82;;;;;;;14.27;100.00;101620.50;5066087;28;20581;-76
2022/06/16 03:40:25;;;;;;;19.55;10.25;;;;;;;14.17;100.00;101608.50;5083797;28;20028;-77
2022/06/16 03:42:50;;;;;;;22.40;10.48;;;;;;;14.05;100.00;101612.25;5067437;28;20513;-77
2022/06/16 03:45:16;;;;;;;22.80;10.75;;;;;;;13.85;100.00;101612.00;5087063;28;20032;-77
2022/06/16 03:47:41;;;;;;;25.95;11.27;;;;;;;13.97;100.00;101616.53;5085901;28;20483;-77
2022/06/16 03:50:08;;;;;;;26.08;10.63;;;;;;;13.94;100.00;101611.25;5052163;28;20480;-77
2022/06/16 03:52:33;;;;;;;23.17;10.45;;;;;;;13.98;100.00;101612.75;5085695;28;20028;-77
2022/06/16 03:54:59;;;;;;;30.95;11.82;;;;;;;14.00;100.00;101614.50;5090856;28;20598;-77
2022/06/16 03:57:24;;;;;;;24.42;11.27;;;;;;;14.03;100.00;101620.63;5067195;28;20459;-77
2022/06/16 03:59:50;;;;;;;21.05;10.88;;;;;;;14.00;100.00;101633.78;5076279;28;20035;-77
2022/06/16 04:02:15;;;;;;;28.83;11.23;;;;;;;14.08;100.00;101637.66;5077093;28;20039;-78
2022/06/16 04:04:41;;;;;;;24.50;11.13;;;;;;;14.06;100.00;101634.16;5093621;28;20032;-78
2022/06/16 04:07:07;;;;;;;21.85;11.38;;;;;;;14.21;100.00;101642.19;5068880;28;20028;-78
2022/06/16 04:09:33;;;;;;;23.45;11.52;;;;;;;14.08;100.00;101645.06;5068794;28;20025;-78
2022/06/16 04:11:58;;;;;;;24.52;11.20;;;;;;;14.14;100.00;101645.41;5084000;28;20040;-78
2022/06/16 04:14:24;;;;;;;23.08;11.32;;;;;;;14.22;100.00;101660.47;5062878;28;20097;-78
2022/06/16 04:16:52;;;;;;;23.08;11.95;;;;;;;14.27;100.00;101667.34;5087296;28;20085;-78
2022/06/16 04:19:21;;;;;;;27.38;12.13;;;;;;;14.31;100.00;101670.72;5070686;28;20396;-78
2022/06/16 04:21:48;;;;;;;22.65;11.38;;;;;;;14.23;100.00;101667.72;5083686;28;20086;-78
2022/06/16 04:24:15;;;;;;;27.85;12.75;;;;;;;14.26;100.00;101667.47;5058837;28;20040;-78
2022/06/16 04:26:41;;;;;;;23.92;12.75;;;;;;;14.22;100.00;101669.59;5078061;28;20520;-77
2022/06/16 04:29:09;;;;;;;27.02;12.50;;;;;;;14.20;100.00;101663.34;5059955;28;20032;-77
2022/06/16 04:31:35;;;;;;;22.30;12.82;;;;;;;14.19;100.00;101674.47;5091951;28;20044;-78
2022/06/16 04:34:02;;;;;;;24.50;12.18;;;;;;;14.27;100.00;101678.34;5066755;28;20089;-78
2022/06/16 04:36:29;;;;;;;25.05;11.38;;;;;;;14.37;100.00;101684.00;5075779;28;20039;-78
2022/06/16 04:38:57;;;;;;;26.17;11.70;;;;;;;14.30;100.00;101682.75;5084003;28;20044;-79
2022/06/16 04:41:23;;;;;;;26.15;11.98;;;;;;;14.33;100.00;101680.63;5067298;28;20515;-77
2022/06/16 04:43:49;;;;;;;28.88;11.98;;;;;;;14.39;100.00;101683.88;5090437;28;20048;-78
2022/06/16 04:46:16;;;;;;;24.02;12.43;;;;;;;14.30;100.00;101680.00;5060723;28;20036;-77
2022/06/16 04:48:43;;;;;;;32.35;12.68;;;;;;;14.37;100.00;101689.50;5077084;28;20036;-77
2022/06/16 04:51:10;;;;;;;30.75;12.15;;;;;;;14.41;100.00;101691.00;5078479;28;20032;-77
2022/06/16 04:53:36;;;;;;;26.55;12.63;;;;;;;14.36;100.00;101684.97;5059004;28;20043;-77
2022/06/16 04:56:03;;;;;;;27.17;12.32;;;;;;;14.54;100.00;101690.84;5105222;28;20495;-77
2022/06/16 04:58:29;;;;;;;30.35;14.02;;;;;;;14.55;100.00;101700.03;5074587;28;20034;-78
2022/06/16 05:00:56;;;;;;;23.58;12.80;;;;;;;14.55;100.00;101705.53;5057676;28;20032;-77
2022/06/16 05:03:25;;;;;;;26.02;12.70;;;;;;;14.51;100.00;101707.63;5081661;28;20934;-77
2022/06/16 05:05:51;;;;;;;32.30;13.80;;;;;;;14.55;100.00;101706.41;5082333;28;20081;-78
2022/06/16 05:08:18;;;;;;;30.23;13.18;;;;;;;14.61;100.00;101710.53;5081475;28;20024;-77
2022/06/16 05:10:49;;;;;;;22.90;12.52;;;;;;;14.70;100.00;101707.03;5075802;28;20093;-78
2022/06/16 05:13:16;;;;;;;27.08;12.38;;;;;;;14.79;100.00;101719.16;5084220;28;20443;-78
2022/06/16 05:15:42;;;;;;;26.55;12.27;;;;;;;14.84;100.00;101715.03;5067449;28;20127;-77
2022/06/16 05:18:08;;;;;;;28.88;12.55;;;;;;;14.98;100.00;101710.25;5078578;28;20028;-77
2022/06/16 05:20:34;;;;;;;30.10;12.45;;;;;;;15.32;100.00;101715.66;5077818;28;20048;-78
2022/06/16 05:23:00;;;;;;;25.58;11.55;;;;;;;15.79;100.00;101727.28;5077070;28;20079;-77
2022/06/16 05:25:26;;;;;;;27.42;12.73;;;;;;;15.92;100.00;101718.75;5074429;28;20037;-78
2022/06/16 05:27:51;;;;;;;17.63;10.80;;;;;;;16.06;100.00;101726.72;5080696;28;20068;-77
2022/06/16 05:30:17;;;;;;;20.70;10.93;;;;;;;16.17;98.78;101732.16;5060818;28;20036;-76
2022/06/16 05:32:43;;;;;;;28.95;11.75;;;;;;;16.41;99.47;101744.78;5077052;28;20043;-78
2022/06/16 05:35:09;;;;;;;21.20;10.93;;;;;;;16.71;97.67;101745.81;5082274;28;20036;-78
2022/06/16 05:37:35;;;;;;;26.30;11.60;;;;;;;17.00;95.56;101747.81;5071826;28;20041;-78
2022/06/16 05:40:01;;;;;;;27.77;11.80;;;;;;;17.19;91.57;101760.84;5083105;28;20078;-77
2022/06/16 05:42:26;;;;;;;24.95;10.55;;;;;;;17.24;91.89;101750.22;5086326;28;20111;-77
2022/06/16 05:44:52;;;;;;;26.38;11.90;;;;;;;17.57;90.27;101751.69;5053003;28;20119;-77
2022/06/16 05:47:17;;;;;;;22.60;11.30;;;;;;;17.51;89.87;101752.28;5083900;28;20028;-78
2022/06/16 05:49:44;;;;;;;25.73;11.73;;;;;;;17.74;87.41;101761.19;5079095;28;20051;-77
2022/06/16 05:52:14;;;;;;;21.10;10.93;;;;;;;17.94;85.20;101750.97;5053966;28;20129;-78
2022/06/16 05:54:40;;;;;;;26.08;10.27;;;;;;;18.27;84.45;101754.28;5061726;28;20107;-79
2022/06/16 05:57:08;;;;;;;22.98;10.23;;;;;;;18.02;83.63;101761.34;5075500;28;20078;-78
2022/06/16 05:59:34;;;;;;;22.70;10.27;;;;;;;18.23;83.88;101771.34;5073966;28;20037;-77
2022/06/16 06:02:00;;;;;;;13.27;8.05;;;;;;;19.05;78.36;101775.28;5071631;28;20059;-77
2022/06/16 06:04:26;;;;;;;23.02;9.00;;;;;;;19.04;76.41;101784.69;5058004;28;20033;-77
2022/06/16 06:06:52;;;;;;;21.05;7.80;;;;;;;18.84;76.37;101783.88;5073692;28;20051;-77
2022/06/16 06:17:30;;;;;;;14.63;6.80;;;;;;;19.63;69.35;101783.25;5076034;28;20090;-77
2022/06/16 06:19:55;;;;;;;15.30;6.57;;;;;;;19.99;70.06;101777.72;5076558;28;20484;-76
2022/06/16 06:22:25;;;;;;;12.25;6.05;;;;;;;20.28;67.36;101781.22;5072687;28;20041;-76
2022/06/16 06:24:58;;;;;;;18.15;6.03;;;;;;;20.68;65.14;101783.44;5072081;28;20119;-76
2022/06/16 06:27:44;;;;;;;11.68;4.97;;;;;;;20.56;64.54;101782.81;5074889;28;20150;-77
2022/06/16 06:30:19;;;;;;;10.55;4.93;;;;;;;20.67;63.59;101784.47;5092488;28;20475;-76
2022/06/16 06:32:45;;;;;;;14.95;4.97;;;;;;;;;;5084488;28;20028;-76
2022/06/16 06:35:11;;;;;;;16.35;4.65;;;;;;;21.04;59.15;101783.25;5074445;28;20555;-77
2022/06/16 06:37:38;;;;;;;11.55;4.30;;;;;;;20.64;60.84;101781.16;5084179;28;20028;-76
2022/06/16 06:40:05;;;;;;;12.90;3.75;;;;;;;20.84;62.54;101782.66;5070384;28;20086;-75
2022/06/16 06:42:31;;;;;;;17.38;3.75;;;;;;;21.56;59.63;101792.50;5079072;28;20403;-76
2022/06/16 06:44:56;;;;;;;11.93;3.95;;;;;;;22.05;58.49;101791.69;5082044;28;20040;-75
2022/06/16 06:47:26;;;;;;;7.78;3.55;;;;;;;23.11;55.69;101794.31;5075480;28;20502;-76
2022/06/16 06:49:52;;;;;;;17.63;3.40;;;;;;;22.03;54.96;101800.22;5092571;28;20081;-76
2022/06/16 06:52:19;;;;;;;11.05;3.05;;;;;;;21.64;55.24;101800.88;5084811;28;20036;-76
2022/06/16 06:54:45;;;;;;;15.32;3.20;;;;;;;21.64;56.51;101806.44;5074856;28;20079;-76
2022/06/16 06:57:30;;;;;;;8.38;2.83;;;;;;;21.70;56.26;101794.63;5075531;28;20039;-76
2022/06/16 06:59:56;;;;;;;8.00;3.05;;;;;;;21.76;55.83;101805.09;5071581;28;20047;-76
2022/06/16 07:02:22;;;;;;;11.98;3.25;;;;;;;22.94;52.38;101798.19;5074522;28;20115;-77
2022/06/16 07:04:48;;;;;;;6.07;2.47;;;;;;;22.95;50.53;101806.38;5074986;28;20029;-77
2022/06/16 07:07:18;;;;;;;8.32;2.63;;;;;;;22.56;53.32;101806.31;5071252;28;20040;-77
2022/06/16 07:09:44;;;;;;;6.53;2.83;;;;;;;23.97;46.30;101818.63;5075364;28;20029;-76
2022/06/16 07:12:14;;;;;;;11.75;2.25;;;;;;;23.07;49.37;101831.16;5089838;28;20047;-77
2022/06/16 07:14:44;;;;;;;3.95;1.98;;;;;;;22.54;50.76;101831.59;5092769;28;20144;-76
2022/06/16 07:17:10;;;;;;;12.13;2.20;;;;;;;23.00;51.62;101835.69;5089523;28;20197;-77
2022/06/16 07:19:36;;;;;;;4.90;2.00;;;;;;;22.83;50.00;101834.88;5077042;28;20032;-78
2022/06/16 07:22:04;;;;;;;6.43;1.55;;;;;;;23.49;44.94;101833.59;5088450;28;20145;-77
2022/06/16 07:24:29;;;;;;;5.18;1.60;;;;;;;23.57;44.16;101834.63;5093236;28;20503;-77
2022/06/16 07:26:55;;;;;;;7.72;1.70;;;;;;;23.34;46.81;101838.22;5089821;28;20036;-77
2022/06/16 07:29:20;;;;;;;6.55;1.80;;;;;;;22.83;48.58;101843.28;5076506;28;20100;-77
2022/06/16 07:31:46;;;;;;;6.10;1.50;;;;;;;23.00;47.83;101847.75;5058823;28;20544;-77
2022/06/16 07:34:12;;;;;;;2.88;1.40;;;;;;;23.84;47.37;101844.41;5073024;28;20074;-77
2022/06/16 07:36:38;;;;;;;7.53;1.90;;;;;;;23.01;49.35;101854.22;5071631;28;20036;-77
2022/06/16 07:39:04;;;;;;;10.50;1.80;;;;;;;22.93;49.58;101852.31;5056659;28;20048;-77
2022/06/16 07:41:31;;;;;;;6.47;1.55;;;;;;;23.42;49.07;101851.28;5071641;28;20049;-77
2022/06/16 07:43:58;;;;;;;5.47;1.60;;;;;;;23.76;48.01;101862.13;5071879;28;20028;-78
2022/06/16 07:46:24;;;;;;;4.07;1.60;;;;;;;23.93;46.53;101862.91;5072478;28;20028;-78
2022/06/16 07:48:51;;;;;;;4.78;1.20;;;;;;;23.85;43.52;101868.56;5071618;28;20040;-77
2022/06/16 07:51:18;;;;;;;5.43;1.55;;;;;;;23.42;46.13;101876.44;5074043;28;20029;-77
2022/06/16 07:53:44;;;;;;;5.55;1.52;;;;;;;23.64;48.17;101877.56;5076191;28;20041;-77
2022/06/16 07:56:09;;;;;;;5.25;1.65;;;;;;;23.88;47.44;101884.97;5076351;28;20040;-77
2022/06/16 07:58:35;;;;;;;3.40;1.38;;;;;;;24.22;46.00;101887.34;5075750;28;20036;-77
2022/06/16 08:01:00;;;;;;;6.90;1.75;;;;;;;24.44;45.05;101886.66;5076162;28;20039;-77
2022/06/16 08:03:28;;;;;;;4.90;1.48;;;;;;;24.49;43.42;101884.16;5086544;28;20025;-77
2022/06/16 08:05:54;;;;;;;4.10;1.40;;;;;;;25.00;42.00;101884.38;5095011;28;20039;-77
2022/06/16 08:08:23;;;;;;;4.35;1.40;;;;;;;25.10;43.38;101890.59;5080184;28;20119;-77
2022/06/16 08:10:49;;;;;;;3.88;1.25;;;;;;;24.76;45.51;101893.94;5092811;28;20168;-77
2022/06/16 08:13:15;;;;;;;5.65;1.17;;;;;;;24.39;44.36;101882.50;5080874;28;20437;-77
2022/06/16 08:15:45;;;;;;;7.15;1.48;;;;;;;24.53;41.59;101886.41;5058130;28;20157;-77
2022/06/16 08:18:14;;;;;;;5.22;1.33;;;;;;;24.36;43.96;101890.41;5080179;28;20032;-77
2022/06/16 08:20:41;;;;;;;3.65;1.10;;;;;;;24.52;44.53;101893.06;5095051;28;20028;-77
2022/06/16 08:23:07;;;;;;;3.75;1.20;;;;;;;26.03;39.65;101901.34;5081989;28;20033;-77
2022/06/16 08:25:33;;;;;;;7.07;1.45;;;;;;;25.07;42.21;101899.38;5074545;28;20619;-77
2022/06/16 08:28:02;;;;;;;4.28;1.45;;;;;;;24.79;42.45;101898.28;5074494;28;20116;-76
2022/06/16 08:30:29;;;;;;;7.70;2.13;;;;;;;25.68;41.39;101902.00;5041982;28;20396;-77
2022/06/16 08:32:55;;;;;;;9.75;1.80;;;;;;;24.88;41.38;101908.34;5075390;28;20041;-77
2022/06/16 08:35:21;;;;;;;4.78;1.45;;;;;;;24.21;44.69;101919.19;5081618;28;20036;-76
2022/06/16 08:37:46;;;;;;;3.38;1.40;;;;;;;24.84;44.09;101907.88;5094172;28;20036;-77
2022/06/16 08:40:13;;;;;;;5.07;1.77;;;;;;;25.68;40.83;101910.41;5094437;28;20044;-77
2022/06/16 08:42:54;;;;;;;8.45;1.38;;;;;;;25.26;44.21;101908.28;5094097;28;20028;-77
2022/06/16 08:45:28;;;;;;;4.88;1.50;;;;;;;25.21;44.19;101913.59;5094677;28;20506;-77
2022/06/16 08:48:12;;;;;;;4.70;1.40;;;;;;;25.75;41.69;101907.69;5077959;28;20395;-77
2022/06/16 08:50:47;;;;;;;6.90;1.55;;;;;;;25.33;43.03;101895.25;5073943;28;20364;-77
2022/06/16 08:53:18;;;;;;;3.60;1.70;;;;;;;25.12;42.14;101888.47;5057084;28;20032;-77
2022/06/16 08:55:43;;;;;;;7.90;1.50;;;;;;;24.88;42.52;101884.00;5074264;28;20031;-77
2022/06/16 08:58:50;;;;;;;9.05;1.60;;;;;;;25.17;43.49;101879.47;5077982;28;20395;-77
2022/06/16 09:01:22;;;;;;;4.57;1.80;;;;;;;24.86;43.97;101879.63;5076753;28;20036;-75
2022/06/16 09:03:55;;;;;;;12.73;1.98;;;;;;;24.76;44.29;101886.41;5073243;28;20059;-76
2022/06/16 09:06:29;;;;;;;6.55;1.67;;;;;;;25.16;46.57;101893.69;5056642;28;20098;-78
2022/06/16 09:10:14;;;;;;;5.40;1.90;;;;;;;24.89;43.18;101904.47;5059262;28;20032;-77
2022/06/16 09:12:29;;;;;;;4.95;1.58;;;;;;;26.10;41.86;101904.22;5075465;28;20028;-78
2022/06/16 09:15:13;;;;;;;10.00;2.10;;;;;;;25.22;43.57;101907.81;5074573;28;20395;-76
2022/06/16 09:17:42;;;;;;;4.22;1.95;;;;;;;26.03;40.31;101924.66;5074293;28;20055;-77
2022/06/16 09:20:12;;;;;;;5.20;2.10;;;;;;;25.37;42.84;101938.69;5072781;28;20077;-76
2022/06/16 09:23:13;;;;;;;6.13;2.03;;;;;;;25.85;41.77;101933.50;5075048;28;20024;-77
2022/06/16 09:25:41;;;;;;;10.93;2.25;;;;;;;25.76;43.43;101933.78;5055690;28;20056;-77
2022/06/16 09:28:27;;;;;;;6.60;2.20;;;;;;;25.56;42.33;101930.72;5073151;28;20033;-77
2022/06/16 09:30:55;;;;;;;6.72;2.60;;;;;;;25.23;43.83;101933.88;5074324;28;20032;-77
2022/06/16 09:33:28;;;;;;;6.15;2.50;;;;;;;26.25;43.20;101930.31;5074404;28;20028;-77
2022/06/16 09:36:11;;;;;;;7.72;2.30;;;;;;;25.78;45.05;101940.09;5072937;28;20099;-77
2022/06/16 09:38:44;;;;;;;7.65;2.30;;;;;;;25.84;44.30;101943.00;5073640;28;20048;-77
2022/06/16 09:44:06;;;;;;;7.97;1.90;;;;;;;26.14;42.29;101942.94;5073615;28;20042;-77
2022/06/16 09:46:40;;;;;;;7.53;2.72;;;;;;;25.85;44.01;101943.84;5074210;28;20071;-77
2022/06/16 09:49:10;;;;;;;9.82;2.70;;;;;;;25.81;44.41;101945.28;5072845;28;20472;-76
2022/06/16 09:51:44;;;;;;;7.18;2.50;;;;;;;26.87;41.36;101945.63;5071245;28;20094;-76
2022/06/16 09:54:15;;;;;;;15.32;3.20;;;;;;;25.56;44.01;101941.94;5073766;28;20040;-76
2022/06/16 09:57:19;;;;;;;8.32;2.28;;;;;;;25.55;43.49;101943.91;5055661;28;20066;-77
2022/06/16 09:59:56;;;;;;;8.48;2.45;;;;;;;25.82;43.44;101955.47;5072524;28;20025;-77
2022/06/16 10:02:33;;;;;;;8.10;2.95;;;;;;;25.26;44.90;101936.31;5072895;28;20024;-77
2022/06/16 10:05:00;;;;;;;8.43;2.80;;;;;;;25.21;46.81;101931.28;5058903;28;20440;-77
2022/06/16 10:07:51;;;;;;;8.43;2.92;;;;;;;25.54;46.54;101946.91;5072092;28;20158;-78
2022/06/16 10:10:24;;;;;;;8.60;2.88;;;;;;;25.79;45.75;101948.31;5073769;28;20032;-76
2022/06/16 10:13:08;;;;;;;8.75;2.83;;;;;;;25.53;47.40;101948.84;5071890;28;20021;-76
2022/06/16 10:15:45;;;;;;;7.47;3.00;;;;;;;25.73;48.17;101948.22;5055249;28;20085;-77
2022/06/16 10:18:11;;;;;;;7.85;2.95;;;;;;;25.66;42.93;101942.50;5078057;28;20024;-77
2022/06/16 10:20:38;;;;;;;6.07;2.63;;;;;;;25.15;44.30;101943.25;5095005;28;20032;-77
2022/06/16 10:23:12;;;;;;;6.68;2.50;;;;;;;25.88;44.89;101942.59;5094472;28;20028;-77
2022/06/16 10:25:46;;;;;;;7.45;2.92;;;;;;;25.96;44.72;101945.31;5078857;28;20036;-77
2022/06/16 10:28:32;;;;;;;9.27;2.72;;;;;;;26.95;43.13;101950.25;5074031;28;20028;-77
2022/06/16 10:31:00;;;;;;;8.55;3.53;;;;;;;26.67;43.15;101955.84;5074246;28;20036;-77
2022/06/16 10:33:34;;;;;;;11.93;3.33;;;;;;;25.13;46.73;101939.78;5091058;28;20032;-77
2022/06/16 10:36:23;;;;;;;8.55;3.40;;;;;;;26.16;44.59;101939.94;5070344;28;20123;-77
2022/06/16 10:39:18;;;;;;;8.82;3.17;;;;;;;26.32;45.32;101938.84;5069161;28;20040;-77
2022/06/16 10:42:01;;;;;;;14.00;3.25;;;;;;;26.05;45.90;101938.50;5094958;28;20453;-77
2022/06/16 10:44:29;;;;;;;7.60;3.47;;;;;;;25.91;46.62;101945.00;5076575;28;20032;-77
2022/06/16 10:46:58;;;;;;;11.73;3.08;;;;;;;26.48;44.92;101943.28;5079758;28;20033;-77
2022/06/16 10:49:45;;;;;;;8.13;3.17;;;;;;;26.13;46.90;101955.22;5075326;28;20490;-78
2022/06/16 10:52:21;;;;;;;13.77;3.72;;;;;;;25.82;46.33;101947.03;5075398;28;20105;-78
2022/06/16 10:55:10;;;;;;;9.85;4.20;;;;;;;25.60;45.27;101940.50;5058983;28;20086;-78
2022/06/16 10:57:46;;;;;;;10.65;2.95;;;;;;;26.27;47.25;101944.16;5069103;28;20052;-77
2022/06/16 11:00:19;;;;;;;10.27;3.90;;;;;;;25.36;45.66;101944.47;5055364;28;20056;-77
2022/06/16 11:03:06;;;;;;;9.70;3.92;;;;;;;25.26;47.63;101941.91;5083836;28;20027;-77
2022/06/16 11:05:37;;;;;;;7.25;2.92;;;;;;;25.99;47.50;101944.91;5092437;28;20115;-77
2022/06/16 11:08:13;;;;;;;8.95;3.10;;;;;;;27.11;44.92;101957.50;5092270;28;20039;-77
2022/06/16 11:10:49;;;;;;;14.77;2.97;;;;;;;27.58;41.60;101949.41;5089211;28;20024;-77
2022/06/16 11:13:20;;;;;;;14.00;3.90;;;;;;;26.28;42.72;101935.53;5083113;28;20043;-76
2022/06/16 11:15:49;;;;;;;7.60;2.83;;;;;;;25.76;45.59;101934.69;5081508;28;20033;-77
2022/06/16 11:18:20;;;;;;;7.57;3.08;;;;;;;26.04;47.54;101943.25;5100351;28;20063;-78
2022/06/16 11:20:49;;;;;;;8.05;3.00;;;;;;;26.70;43.10;101947.00;5076143;28;20025;-78
2022/06/16 11:23:25;;;;;;;7.45;2.65;;;;;;;26.23;45.03;101940.88;5074913;28;20039;-78
2022/06/16 11:26:00;;;;;;;9.45;2.97;;;;;;;27.46;42.36;101940.69;5059221;28;20043;-78
2022/06/16 11:28:27;;;;;;;12.02;3.70;;;;;;;26.72;44.08;101950.47;5060523;28;20075;-77
2022/06/16 11:30:57;;;;;;;13.35;3.05;;;;;;;25.94;46.56;101951.09;5061485;28;20031;-78
2022/06/16 11:34:06;;;;;;;13.55;3.28;;;;;;;25.84;44.56;101954.22;5093908;28;20043;-77
2022/06/16 11:36:37;;;;;;;10.20;2.97;;;;;;;26.53;43.56;101943.56;5081690;28;20035;-77
2022/06/16 11:39:11;;;;;;;11.65;3.15;;;;;;;26.69;41.44;101939.63;5052125;28;20054;-77
2022/06/16 11:41:39;;;;;;;10.77;3.05;;;;;;;25.77;46.95;101928.00;5083527;28;20040;-79
2022/06/16 11:44:37;;;;;;;8.30;2.38;;;;;;;26.30;46.93;101936.22;5078479;28;20037;-77
2022/06/16 11:47:12;;;;;;;14.18;2.50;;;;;;;26.03;45.37;101933.09;5087435;28;20082;-78
2022/06/16 11:49:57;;;;;;;8.20;2.72;;;;;;;25.89;44.43;101933.09;5080974;28;20043;-77